Time;durP1;ratioP1;P1;durP2;ratioP2;P2;SDS_P1;SDS_P2;PMS_P1;PMS_P2;Temp;Humidity;BMP_temperature;BMP_pressure;BME280_temperature;BME280_humidity;BME280_pressure;Samples;Min_cycle;Max_cycle;Signal;HPM_P1;HPM_P2
2021/08/09 00:02:05;;;;;;;5.80;1.37;;;;;;;;;;4975327;28;20464;-90
2021/08/09 00:04:34;;;;;;;1.60;1.27;;;;;;;;;;4974766;28;20461;-91
2021/08/09 00:07:01;;;;;;;3.27;1.23;;;;;;;;;;4973680;28;20469;-90
2021/08/09 00:09:30;;;;;;;3.90;1.30;;;;;;;;;;4972821;28;20446;-92
2021/08/09 00:11:58;;;;;;;1.83;1.20;;;;;;;;;;4976192;28;20505;-89
2021/08/09 00:14:25;;;;;;;2.10;1.37;;;;;;;;;;4973799;28;20442;-89
2021/08/09 00:16:52;;;;;;;2.07;1.20;;;;;;;;;;4976230;28;20963;-93
2021/08/09 00:19:19;;;;;;;1.97;1.23;;;;;;;;;;4975844;28;20481;-92
2021/08/09 00:21:46;;;;;;;1.83;1.20;;;;;;;;;;4976612;28;20461;-93
2021/08/09 00:24:13;;;;;;;1.37;1.27;;;;;;;;;;4975330;28;20458;-93
2021/08/09 00:26:42;;;;;;;2.87;1.40;;;13.60;99.90;;;;;;4976468;28;20493;-93
2021/08/09 00:29:09;;;;;;;6.03;1.90;;;;;;;;;;4973077;28;20469;-94
2021/08/09 00:31:36;;;;;;;2.20;1.23;;;;;;;;;;4971848;28;20898;-92
2021/08/09 00:34:03;;;;;;;3.40;1.27;;;;;;;;;;4975264;28;20442;-92
2021/08/09 00:36:30;;;;;;;2.70;1.47;;;;;;;;;;4971767;28;20446;-93
2021/08/09 00:38:57;;;;;;;2.50;1.40;;;;;;;;;;4970892;28;20443;-92
2021/08/09 00:41:25;;;;;;;1.10;1.00;;;;;;;;;;4975433;28;20462;-93
2021/08/09 00:43:53;;;;;;;2.83;1.30;;;13.40;99.90;;;;;;4979496;28;20454;-93
2021/08/09 00:46:20;;;;;;;1.90;1.40;;;;;;;;;;4974885;28;20450;-90
2021/08/09 00:48:47;;;;;;;2.20;1.30;;;;;;;;;;4978984;28;20453;-92
2021/08/09 00:51:14;;;;;;;3.00;1.33;;;;;;;;;;4978975;28;20493;-91
2021/08/09 00:53:42;;;;;;;1.90;1.20;;;;;;;;;;4974357;28;20576;-92
2021/08/09 00:56:09;;;;;;;3.87;1.40;;;;;;;;;;4979112;28;20457;-92
2021/08/09 00:58:36;;;;;;;1.90;1.37;;;;;;;;;;4983364;28;20453;-87
2021/08/09 01:01:04;;;;;;;5.03;1.30;;;13.20;99.90;;;;;;4991316;28;20458;-88
2021/08/09 01:03:31;;;;;;;3.23;1.33;;;;;;;;;;4980256;28;20453;-91
2021/08/09 01:05:59;;;;;;;4.03;1.40;;;;;;;;;;4978600;28;20461;-91
2021/08/09 01:08:36;;;;;;;3.83;1.50;;;13.30;99.90;;;;;;4977093;28;20454;-89
2021/08/09 01:11:11;;;;;;;7.03;2.83;;;13.30;99.90;;;;;;4975794;28;20449;-92
2021/08/09 01:13:51;;;;;;;3.10;1.70;;;13.20;99.90;;;;;;4978513;28;20445;-92
2021/08/09 01:16:24;;;;;;;1.43;1.20;;;13.10;99.90;;;;;;4977996;28;20457;-91
2021/08/09 01:18:51;;;;;;;2.33;1.03;;;;;;;;;;4975487;28;20489;-92
2021/08/09 01:21:20;;;;;;;2.73;1.23;;;13.10;99.90;;;;;;4978389;28;20446;-94
2021/08/09 01:23:59;;;;;;;1.63;1.53;;;13.30;99.90;;;;;;4977577;28;20454;-92
2021/08/09 01:26:35;;;;;;;2.80;1.40;;;13.30;99.90;;;;;;4981499;28;20485;-92
2021/08/09 01:29:06;;;;;;;3.57;1.50;;;13.30;99.90;;;;;;4993171;28;20446;-91
2021/08/09 01:31:41;;;;;;;1.60;1.27;;;13.30;99.90;;;;;;4996242;28;20478;-91
2021/08/09 01:34:09;;;;;;;6.40;1.57;;;13.30;99.90;;;;;;4997938;28;20450;-91
2021/08/09 01:36:37;;;;;;;3.83;1.40;;;;;;;;;;4978366;28;20463;-91
2021/08/09 01:39:05;;;;;;;2.73;1.77;;;13.20;99.90;;;;;;4977480;28;20456;-92
2021/08/09 01:41:32;;;;;;;1.80;1.50;;;;;;;;;;4976080;28;20513;-92
2021/08/09 01:44:00;;;;;;;1.60;1.20;;;;;;;;;;4977379;28;20454;-90
2021/08/09 01:46:28;;;;;;;1.97;1.50;;;13.00;99.90;;;;;;4977736;28;20458;-93
2021/08/09 01:48:56;;;;;;;2.03;1.30;;;;;;;;;;4974622;28;20465;-92
2021/08/09 01:51:23;;;;;;;2.00;1.10;;;;;;;;;;4977677;28;20908;-92
2021/08/09 01:53:52;;;;;;;1.57;1.40;;;;;;;;;;4975711;28;20958;-89
2021/08/09 01:56:19;;;;;;;4.00;1.43;;;;;;;;;;4977095;28;20541;-90
2021/08/09 01:58:46;;;;;;;1.90;1.07;;;;;;;;;;4974189;28;20493;-91
2021/08/09 02:01:14;;;;;;;2.30;1.10;;;;;;;;;;4979350;28;20914;-91
2021/08/09 02:03:42;;;;;;;1.80;1.10;;;13.10;99.90;;;;;;4974872;28;20450;-93
2021/08/09 02:06:09;;;;;;;1.93;1.30;;;;;;;;;;4977111;28;20461;-90
2021/08/09 02:08:37;;;;;;;3.90;1.67;;;;;;;;;;4976158;28;20485;-91
2021/08/09 02:11:08;;;;;;;5.93;1.23;;;13.00;99.90;;;;;;4976839;28;20446;-92
2021/08/09 02:13:40;;;;;;;2.63;1.50;;;13.10;99.90;;;;;;4976846;28;20480;-92
2021/08/09 02:16:12;;;;;;;1.83;1.40;;;13.00;99.90;;;;;;4974013;28;20454;-91
2021/08/09 02:18:47;;;;;;;4.07;1.60;;;12.90;99.90;;;;;;4976687;28;20478;-91
2021/08/09 02:21:16;;;;;;;4.67;1.80;;;13.00;99.90;;;;;;4976686;28;20954;-91
2021/08/09 02:23:47;;;;;;;4.93;1.80;;;13.10;99.90;;;;;;4975528;28;20446;-93
2021/08/09 02:26:18;;;;;;;4.10;1.50;;;13.10;99.90;;;;;;4976865;28;20482;-90
2021/08/09 02:28:47;;;;;;;1.60;1.50;;;13.00;99.90;;;;;;4980209;28;20520;-88
2021/08/09 02:31:15;;;;;;;2.60;1.20;;;13.00;99.90;;;;;;4990985;28;20478;-91
2021/08/09 02:33:43;;;;;;;2.80;1.37;;;;;;;;;;4979615;28;20797;-93
2021/08/09 02:36:12;;;;;;;1.73;1.30;;;13.00;99.90;;;;;;4976775;28;20454;-93
2021/08/09 02:38:40;;;;;;;1.70;1.20;;;13.00;99.90;;;;;;4976032;28;20462;-91
2021/08/09 02:41:08;;;;;;;3.60;1.50;;;13.00;99.90;;;;;;4973393;28;20457;-91
2021/08/09 02:43:36;;;;;;;2.83;1.57;;;13.00;99.90;;;;;;4970921;28;20450;-91
2021/08/09 02:46:04;;;;;;;4.07;1.50;;;12.80;99.90;;;;;;4976388;28;20960;-91
2021/08/09 02:48:32;;;;;;;4.33;1.63;;;12.90;99.90;;;;;;4976487;28;20489;-92
2021/08/09 02:50:59;;;;;;;3.80;1.67;;;;;;;;;;4976794;28;20454;-91
2021/08/09 02:53:28;;;;;;;4.50;1.70;;;12.90;99.90;;;;;;4975079;28;21028;-94
2021/08/09 02:55:57;;;;;;;2.37;1.17;;;12.80;99.90;;;;;;4974763;28;20861;-92
2021/08/09 02:58:24;;;;;;;3.60;1.20;;;;;;;;;;4969287;28;20493;-93
2021/08/09 03:00:54;;;;;;;1.40;1.30;;;12.70;99.90;;;;;;4976295;28;20437;-92
2021/08/09 03:03:23;;;;;;;2.00;1.73;;;12.60;99.90;;;;;;4968223;28;20442;-92
2021/08/09 03:05:54;;;;;;;2.40;1.40;;;12.10;99.90;;;;;;4968720;28;20505;-92
2021/08/09 03:08:21;;;;;;;2.00;1.43;;;;;;;;;;4973786;28;20512;-92
2021/08/09 03:10:50;;;;;;;2.50;1.73;;;12.60;99.90;;;;;;4973833;28;20899;-89
2021/08/09 03:13:20;;;;;;;2.17;1.80;;;12.60;99.90;;;;;;4975978;28;21017;-91
2021/08/09 03:15:48;;;;;;;1.93;1.37;;;;;;;;;;4976068;28;20442;-91
2021/08/09 03:18:15;;;;;;;3.80;1.50;;;;;;;;;;4975528;28;20470;-92
2021/08/09 03:20:42;;;;;;;2.27;1.63;;;;;;;;;;4975704;28;20469;-92
2021/08/09 03:23:09;;;;;;;2.30;1.60;;;;;;;;;;4974699;28;20462;-92
2021/08/09 03:25:38;;;;;;;3.80;1.50;;;12.50;99.90;;;;;;4972766;28;20454;-90
2021/08/09 03:28:07;;;;;;;1.90;1.60;;;12.40;99.90;;;;;;4975808;28;20450;-91
2021/08/09 03:30:34;;;;;;;1.63;1.30;;;;;;;;;;4968070;28;20458;-92
2021/08/09 03:33:02;;;;;;;1.60;1.33;;;;;;;;;;4975373;28;20508;-92
2021/08/09 03:35:29;;;;;;;1.93;1.50;;;;;;;;;;4975669;28;20482;-90
2021/08/09 03:37:56;;;;;;;4.30;2.00;;;;;;;;;;4971873;28;20938;-92
2021/08/09 03:40:23;;;;;;;2.93;1.50;;;;;;;;;;4975488;28;20457;-92
2021/08/09 03:42:50;;;;;;;5.83;2.30;;;;;;;;;;4975280;28;20455;-90
2021/08/09 03:45:19;;;;;;;2.20;1.70;;;12.30;99.90;;;;;;4972714;28;20521;-92
2021/08/09 03:47:46;;;;;;;5.37;1.73;;;;;;;;;;4975471;28;20460;-92
2021/08/09 03:50:13;;;;;;;4.03;1.30;;;;;;;;;;4975442;28;20446;-93
2021/08/09 03:52:46;;;;;;;2.73;1.60;;;12.30;99.90;;;;;;4976107;28;20489;-94
2021/08/09 03:55:14;;;;;;;2.00;1.53;;;;;;;;;;4975360;28;20485;-92
2021/08/09 03:57:41;;;;;;;4.07;2.20;;;;;;;;;;4977121;28;20458;-92
2021/08/09 04:00:09;;;;;;;3.03;1.73;;;12.30;99.90;;;;;;4994409;28;20541;-90
2021/08/09 04:02:38;;;;;;;5.20;2.10;;;12.30;99.90;;;;;;4981164;28;20469;-92
2021/08/09 04:05:06;;;;;;;8.73;1.70;;;11.90;99.90;;;;;;4976495;28;20457;-90
2021/08/09 04:07:33;;;;;;;2.13;1.93;;;;;;;;;;4971949;28;20454;-92
2021/08/09 04:10:01;;;;;;;2.30;1.60;;;;;;;;;;4972776;28;20978;-94
2021/08/09 04:12:28;;;;;;;2.30;1.40;;;;;;;;;;4975875;28;20519;-93
2021/08/09 04:14:55;;;;;;;3.20;1.73;;;;;;;;;;4976752;28;20463;-92
2021/08/09 04:17:22;;;;;;;1.87;1.47;;;;;;;;;;4977249;28;20454;-93
2021/08/09 04:19:50;;;;;;;2.57;2.10;;;12.00;99.90;;;;;;4997535;28;20439;-93
2021/08/09 04:22:18;;;;;;;2.20;1.73;;;;;;;;;;5001338;28;20454;-94
2021/08/09 04:24:45;;;;;;;2.00;1.40;;;;;;;;;;4976417;28;21000;-92
2021/08/09 04:27:12;;;;;;;2.53;1.67;;;;;;;;;;4979306;28;20486;-92
2021/08/09 04:29:39;;;;;;;3.40;2.00;;;;;;;;;;4979379;28;20454;-93
2021/08/09 04:32:12;;;;;;;2.23;1.37;;;;;;;;;;4979446;28;20972;-93
2021/08/09 04:34:40;;;;;;;4.53;2.00;;;;;;;;;;4977672;28;20454;-92
2021/08/09 04:37:08;;;;;;;3.97;2.20;;;12.20;99.90;;;;;;4978664;28;20454;-94
2021/08/09 04:39:35;;;;;;;3.30;1.70;;;;;;;;;;4983502;28;20469;-90
2021/08/09 04:42:03;;;;;;;1.90;1.70;;;;;;;;;;4980320;28;20458;-94
2021/08/09 04:44:30;;;;;;;3.37;1.80;;;;;;;;;;4976110;28;20477;-93
2021/08/09 04:46:59;;;;;;;1.80;1.50;;;;;;;;;;4979424;28;20870;-92
2021/08/09 04:49:27;;;;;;;2.30;1.73;;;;;;;;;;4981053;28;20505;-93
2021/08/09 04:51:54;;;;;;;3.37;1.70;;;;;;;;;;4976870;28;20475;-94
2021/08/09 04:54:23;;;;;;;3.10;2.23;;;;;;;;;;4976182;28;20569;-93
2021/08/09 04:56:50;;;;;;;3.27;1.73;;;;;;;;;;4979256;28;20856;-94
2021/08/09 04:59:17;;;;;;;2.83;2.27;;;;;;;;;;4981249;28;20450;-90
2021/08/09 05:01:45;;;;;;;3.20;1.80;;;;;;;;;;4977380;28;20441;-92
2021/08/09 05:04:12;;;;;;;3.10;2.10;;;;;;;;;;4979753;28;20468;-92
2021/08/09 05:06:39;;;;;;;2.33;2.00;;;;;;;;;;4981223;28;20457;-93
2021/08/09 05:09:16;;;;;;;4.80;2.00;;;12.30;99.90;;;;;;4975468;28;20481;-92
2021/08/09 05:11:44;;;;;;;5.50;2.33;;;12.40;99.90;;;;;;4975409;28;20930;-92
2021/08/09 05:14:11;;;;;;;2.20;1.93;;;;;;;;;;4975179;28;20497;-92
2021/08/09 05:16:40;;;;;;;4.27;2.20;;;;;;;;;;4975307;28;20821;-92
2021/08/09 05:19:08;;;;;;;2.87;2.60;;;;;;;;;;4978144;28;20469;-92
2021/08/09 05:21:36;;;;;;;3.10;2.07;;;12.40;99.90;;;;;;4975272;28;20470;-93
2021/08/09 05:24:04;;;;;;;4.10;2.20;;;12.80;99.90;;;;;;4977758;28;20938;-92
2021/08/09 05:26:32;;;;;;;3.23;1.90;;;;;;;;;;4975209;28;20486;-91
2021/08/09 05:29:00;;;;;;;2.53;1.93;;;12.80;99.90;;;;;;4993744;28;20453;-90
2021/08/09 05:31:27;;;;;;;2.80;2.00;;;;;;;;;;4989512;28;20453;-94
2021/08/09 05:33:56;;;;;;;6.00;2.03;;;13.00;99.90;;;;;;4975081;28;20494;-94
2021/08/09 05:36:24;;;;;;;7.00;1.70;;;;;;;;;;4978330;28;20458;-91
2021/08/09 05:38:51;;;;;;;2.93;1.93;;;;;;;;;;4976868;28;20473;-91
2021/08/09 05:41:18;;;;;;;3.43;1.83;;;;;;;;;;4978095;28;20465;-92
2021/08/09 05:43:45;;;;;;;2.40;1.57;;;;;;;;;;4980481;28;20453;-92
2021/08/09 05:46:15;;;;;;;2.83;2.00;;;;;;;;;;4978437;28;20461;-94
2021/08/09 05:48:42;;;;;;;1.90;1.50;;;;;;;;;;4978536;28;20485;-94
2021/08/09 05:51:09;;;;;;;1.67;1.10;;;;;;;;;;4974837;28;20459;-91
2021/08/09 05:53:36;;;;;;;3.63;1.63;;;;;;;;;;4976560;28;20573;-94
2021/08/09 05:56:03;;;;;;;7.10;1.53;;;;;;;;;;4974597;28;20458;-93
2021/08/09 05:58:30;;;;;;;1.87;1.30;;;;;;;;;;4974340;28;20454;-93
2021/08/09 06:00:58;;;;;;;1.53;1.43;;;;;;;;;;4977552;28;20481;-91
2021/08/09 06:03:26;;;;;;;2.10;1.27;;;;;;;;;;4974223;28;20469;-88
2021/08/09 06:05:54;;;;;;;4.10;1.60;;;;;;;;;;4977313;28;20451;-91
2021/08/09 06:08:21;;;;;;;2.37;1.40;;;;;;;;;;4976444;28;20505;-91
2021/08/09 06:10:48;;;;;;;2.97;1.70;;;;;;;;;;4977006;28;20450;-93
2021/08/09 06:13:16;;;;;;;3.73;1.23;;;15.70;99.90;;;;;;4974135;28;20572;-92
2021/08/09 06:15:43;;;;;;;1.73;1.30;;;;;;;;;;4972955;28;20457;-91
2021/08/09 06:18:10;;;;;;;2.60;1.40;;;;;;;;;;4976743;28;20465;-92
2021/08/09 06:20:39;;;;;;;3.20;1.70;;;16.70;99.90;;;;;;4976625;28;20462;-92
2021/08/09 06:23:06;;;;;;;3.30;1.33;;;;;;;;;;4972830;28;20491;-92
2021/08/09 06:25:34;;;;;;;3.03;1.33;;;;;;;;;;4976654;28;20453;-92
2021/08/09 06:28:01;;;;;;;1.77;0.90;;;;;;;;;;4977625;28;20969;-93
2021/08/09 06:30:28;;;;;;;2.20;1.30;;;;;;;;;;4983006;28;20456;-90
2021/08/09 06:32:55;;;;;;;1.47;0.67;;;;;;;;;;4992921;28;20492;-93
2021/08/09 06:35:22;;;;;;;3.47;1.13;;;;;;;;;;4977865;28;20462;-94
2021/08/09 06:37:51;;;;;;;3.87;1.20;;;;;;;;;;4976372;28;20463;-92
2021/08/09 06:40:18;;;;;;;1.47;0.90;;;;;;;;;;4976384;28;20465;-93
2021/08/09 06:42:45;;;;;;;2.20;1.20;;;;;;;;;;4976982;28;20453;-93
2021/08/09 06:45:13;;;;;;;1.17;1.00;;;;;;;;;;4977908;28;20459;-92
2021/08/09 06:47:40;;;;;;;3.23;1.20;;;;;;;;;;4975140;28;20466;-91
2021/08/09 06:50:08;;;;;;;1.30;1.20;;;16.50;99.90;;;;;;4978361;28;20798;-91
2021/08/09 06:52:35;;;;;;;1.47;1.10;;;;;;;;;;4975826;28;20465;-91
2021/08/09 06:55:03;;;;;;;5.83;1.40;;;;;;;;;;4976779;28;20458;-91
2021/08/09 06:57:30;;;;;;;2.97;1.10;;;;;;;;;;4976852;28;20459;-90
2021/08/09 06:59:57;;;;;;;1.47;1.07;;;;;;;;;;4993543;28;20462;-92
2021/08/09 07:02:26;;;;;;;2.80;1.63;;;;;;;;;;4984248;28;20480;-91
2021/08/09 07:04:53;;;;;;;2.77;0.90;;;;;;;;;;4981541;28;20537;-93
2021/08/09 07:07:20;;;;;;;1.67;1.00;;;;;;;;;;4985842;28;20450;-92
2021/08/09 07:09:47;;;;;;;1.27;1.17;;;;;;;;;;4999140;28;20469;-93
2021/08/09 07:12:15;;;;;;;1.27;1.00;;;17.30;99.90;;;;;;4988382;28;20938;-92
2021/08/09 07:14:42;;;;;;;0.87;0.87;;;;;;;;;;4977855;28;20493;-92
2021/08/09 07:17:10;;;;;;;3.43;1.30;;;;;;;;;;4977101;28;20510;-94
2021/08/09 07:19:37;;;;;;;4.13;1.50;;;;;;;;;;4976951;28;20458;-92
2021/08/09 07:22:04;;;;;;;1.33;1.07;;;;;;;;;;4975968;28;20450;-94
2021/08/09 07:24:31;;;;;;;2.67;1.10;;;;;;;;;;4977034;28;20454;-91
2021/08/09 07:26:58;;;;;;;1.47;1.27;;;;;;;;;;4977175;28;20485;-93
2021/08/09 07:29:29;;;;;;;2.60;1.20;;;;;;;;;;4977081;28;20450;-92
2021/08/09 07:31:56;;;;;;;2.90;1.37;;;;;;;;;;4976882;28;20465;-93
2021/08/09 07:34:23;;;;;;;2.87;1.10;;;;;;;;;;4976739;28;20493;-94
2021/08/09 07:36:50;;;;;;;3.73;1.10;;;;;;;;;;4977032;28;20458;-92
2021/08/09 07:39:17;;;;;;;1.73;1.23;;;;;;;;;;4975851;28;20462;-94
2021/08/09 07:41:44;;;;;;;0.97;0.87;;;;;;;;;;4977413;28;20803;-92
2021/08/09 07:44:11;;;;;;;1.67;0.80;;;;;;;;;;4976096;28;20450;-93
2021/08/09 07:46:40;;;;;;;1.03;0.80;;;19.10;99.90;;;;;;4975620;28;20450;-93
2021/08/09 07:49:07;;;;;;;2.00;1.17;;;;;;;;;;4976688;28;20447;-92
2021/08/09 07:51:34;;;;;;;2.17;1.13;;;;;;;;;;4972765;28;20473;-92
2021/08/09 07:54:01;;;;;;;1.87;1.10;;;;;;;;;;4974651;28;20485;-92
2021/08/09 07:56:28;;;;;;;1.70;1.00;;;;;;;;;;4975526;28;20465;-93
2021/08/09 07:58:55;;;;;;;4.90;1.20;;;;;;;;;;4972406;28;20477;-92
2021/08/09 08:01:22;;;;;;;0.80;0.80;;;;;;;;;;4975609;28;20469;-90
2021/08/09 08:03:51;;;;;;;1.40;0.80;;;;;;;;;;4975353;28;20458;-92
2021/08/09 08:06:19;;;;;;;1.00;0.73;;;;;;;;;;4975427;28;20458;-93
2021/08/09 08:08:46;;;;;;;2.40;1.13;;;;;;;;;;4971442;28;20502;-93
2021/08/09 08:11:13;;;;;;;1.47;0.73;;;;;;;;;;4975251;28;20934;-93
2021/08/09 08:13:40;;;;;;;1.73;1.23;;;;;;;;;;4975282;28;20489;-92
2021/08/09 08:16:07;;;;;;;1.60;0.90;;;;;;;;;;4972120;28;20525;-93
2021/08/09 08:18:34;;;;;;;1.90;0.97;;;;;;;;;;4975324;28;20923;-92
2021/08/09 08:21:03;;;;;;;1.20;1.00;;;20.90;99.90;;;;;;4975765;28;20457;-92
2021/08/09 08:23:30;;;;;;;1.40;1.00;;;;;;;;;;4974705;28;20458;-94
2021/08/09 08:25:57;;;;;;;2.13;1.30;;;;;;;;;;4976082;28;20486;-93
2021/08/09 08:28:24;;;;;;;2.50;0.90;;;;;;;;;;4978057;28;20454;-91
2021/08/09 08:30:52;;;;;;;1.57;1.00;;;;;;;;;;4989390;28;20541;-89
2021/08/09 08:33:20;;;;;;;2.70;1.20;;;;;;;;;;4971801;28;20518;-93
2021/08/09 08:35:47;;;;;;;5.00;0.87;;;;;;;;;;4977209;28;20957;-95
2021/08/09 08:38:15;;;;;;;3.13;1.17;;;;;;;;;;4973803;28;20462;-92
2021/08/09 08:40:48;;;;;;;2.73;1.20;;;21.70;99.90;;;;;;4976031;28;20462;-92
2021/08/09 08:43:21;;;;;;;2.17;0.97;;;;;;;;;;4976278;28;20450;-93
2021/08/09 08:45:49;;;;;;;2.10;1.07;;;;;;;;;;4986047;28;20438;-94
2021/08/09 08:48:17;;;;;;;1.77;1.00;;;;;;;;;;4987408;28;20446;-93
2021/08/09 08:50:44;;;;;;;2.10;1.30;;;22.70;96.20;;;;;;4974998;28;20481;-93
2021/08/09 08:53:11;;;;;;;2.20;0.83;;;;;;;;;;4973946;28;20445;-92
2021/08/09 08:55:41;;;;;;;1.17;0.93;;;;;;;;;;4976953;28;20465;-93
2021/08/09 08:58:08;;;;;;;1.27;0.80;;;;;;;;;;4977448;28;21033;-94
2021/08/09 09:00:36;;;;;;;1.00;0.73;;;22.00;95.10;;;;;;4986034;28;20465;-91
2021/08/09 09:03:15;;;;;;;1.10;1.00;;;22.30;94.40;;;;;;4991591;28;20450;-89
2021/08/09 09:05:42;;;;;;;1.60;0.80;;;;;;;;;;4995121;28;20446;-92
2021/08/09 09:08:10;;;;;;;1.00;0.70;;;;;;;;;;4990777;28;20438;-91
2021/08/09 09:10:53;;;;;;;2.60;1.17;;;;;;;;;;4996679;28;20441;-94
2021/08/09 09:13:20;;;;;;;1.17;0.70;;;;;;;;;;4978392;28;20465;-92
2021/08/09 09:16:03;;;;;;;1.20;0.80;;;22.50;96.00;;;;;;4980344;28;20989;-91
2021/08/09 09:18:52;;;;;;;2.63;0.83;;;22.50;95.60;;;;;;4981476;28;20458;-94
2021/08/09 09:21:28;;;;;;;1.90;0.83;;;22.10;94.70;;;;;;4976401;28;20512;-93
2021/08/09 09:24:06;;;;;;;1.73;0.70;;;21.80;95.50;;;;;;4977899;28;20972;-92
2021/08/09 09:26:34;;;;;;;2.20;1.00;;;21.70;96.40;;;;;;4974121;28;20485;-92
2021/08/09 09:29:07;;;;;;;1.63;0.90;;;22.30;95.40;;;;;;4973672;28;20446;-90
2021/08/09 09:31:34;;;;;;;1.43;0.90;;;;;;;;;;4976092;28;20437;-89
2021/08/09 09:34:05;;;;;;;1.80;0.87;;;;;;;;;;4979888;28;20992;-94
2021/08/09 09:36:47;;;;;;;2.00;1.40;;;22.40;94.60;;;;;;4977414;28;20518;-93
2021/08/09 09:39:28;;;;;;;4.63;1.17;;;23.20;93.40;;;;;;4974164;28;20595;-92
2021/08/09 09:41:58;;;;;;;1.77;0.60;;;22.70;94.20;;;;;;4980572;28;20446;-91
2021/08/09 09:44:29;;;;;;;1.17;0.70;;;23.40;92.80;;;;;;4984166;28;21055;-94
2021/08/09 09:47:20;;;;;;;1.87;0.90;;;23.20;93.60;;;;;;4980234;28;20772;-95
2021/08/09 09:49:47;;;;;;;1.73;0.70;;;;;;;;;;4980194;28;20946;-93
2021/08/09 09:52:36;;;;;;;1.53;0.80;;;23.70;92.30;;;;;;4978709;28;20465;-94
2021/08/09 09:55:06;;;;;;;3.23;0.80;;;23.20;94.00;;;;;;4977529;28;20490;-93
2021/08/09 09:57:34;;;;;;;2.67;0.93;;;;;;;;;;4977103;28;20496;-94
2021/08/09 10:00:01;;;;;;;1.80;1.30;;;;;;;;;;4994252;28;20458;-93
2021/08/09 10:02:30;;;;;;;2.57;0.90;;;;;;;;;;4989659;28;20473;-94
2021/08/09 10:04:57;;;;;;;1.63;1.07;;;;;;;;;;4977151;28;20837;-94
2021/08/09 10:07:25;;;;;;;0.93;0.70;;;;;;;;;;4983915;28;20460;-93
2021/08/09 10:09:55;;;;;;;1.60;1.07;;;;;;;;;;4977694;28;20463;-94
2021/08/09 10:12:25;;;;;;;3.40;1.20;;;24.10;91.80;;;;;;4977260;28;20453;-93
2021/08/09 10:14:53;;;;;;;2.10;1.00;;;;;;;;;;4971427;28;20486;-93
2021/08/09 10:17:20;;;;;;;1.93;1.40;;;;;;;;;;4976980;28;20454;-92
2021/08/09 10:19:50;;;;;;;2.90;1.20;;;24.50;91.90;;;;;;4977620;28;20934;-93
2021/08/09 10:22:19;;;;;;;1.10;1.00;;;;;;;;;;4976243;28;20454;-93
2021/08/09 10:24:46;;;;;;;1.57;0.90;;;;;;;;;;4974138;28;20469;-93
2021/08/09 10:27:14;;;;;;;1.60;1.20;;;;;;;;;;4973811;28;20486;-93
2021/08/09 10:30:37;;;;;;;2.73;1.20;;;24.50;92.70;;;;;;4983568;28;20534;-93
2021/08/09 10:33:08;;;;;;;3.90;1.27;;;24.40;91.80;;;;;;4978372;28;20446;-92
2021/08/09 10:36:04;;;;;;;3.10;1.27;;;24.20;93.30;;;;;;4978497;28;20537;-91
2021/08/09 10:38:44;;;;;;;3.00;1.17;;;24.20;93.30;;;;;;4972577;28;20822;-94
2021/08/09 10:41:34;;;;;;;1.73;0.87;;;24.20;92.20;;;;;;4978308;28;20894;-93
2021/08/09 10:44:22;;;;;;;2.60;1.10;;;25.40;92.10;;;;;;4973678;28;20974;-94
2021/08/09 10:46:50;;;;;;;1.40;0.90;;;;;;;;;;4972630;28;20458;-91
2021/08/09 10:49:55;;;;;;;2.10;1.10;;;24.40;93.00;;;;;;4979457;28;20942;-95
2021/08/09 10:52:38;;;;;;;2.87;1.60;;;24.90;92.10;;;;;;4978303;28;20458;-93
2021/08/09 10:55:44;;;;;;;2.07;1.30;;;24.80;92.80;;;;;;4978107;28;20564;-91
2021/08/09 10:59:09;;;;;;;1.30;0.90;;;25.00;91.30;;;;;;4979641;28;20454;-93
2021/08/09 11:02:00;;;;;;;2.40;1.30;;;;;;;;;;4986073;28;20561;-93
2021/08/09 11:04:27;;;;;;;1.97;1.20;;;;;;;;;;4983256;28;20594;-87
2021/08/09 11:06:54;;;;;;;2.60;1.00;;;;;;;;;;4976130;28;20493;-89
2021/08/09 11:09:43;;;;;;;3.80;1.23;;;23.60;93.00;;;;;;4975855;28;20456;-93
2021/08/09 11:12:15;;;;;;;1.87;1.07;;;24.70;92.30;;;;;;4972843;28;20461;-90
2021/08/09 11:15:16;;;;;;;1.77;1.10;;;24.70;92.80;;;;;;4975188;28;20502;-91
2021/08/09 11:17:54;;;;;;;1.77;1.40;;;25.30;93.70;;;;;;4975602;28;20454;-90
2021/08/09 11:20:24;;;;;;;3.80;1.43;;;26.50;91.80;;;;;;4968970;28;20763;-93
2021/08/09 11:22:59;;;;;;;4.20;1.30;;;25.50;89.20;;;;;;4974325;28;20446;-93
2021/08/09 11:25:30;;;;;;;2.10;0.90;;;25.10;91.40;;;;;;4975622;28;20803;-90
2021/08/09 11:28:02;;;;;;;2.90;1.60;;;24.20;91.80;;;;;;4971911;28;20799;-90
2021/08/09 11:30:34;;;;;;;2.00;1.33;;;24.20;92.70;;;;;;4990509;28;20415;-89
2021/08/09 11:33:01;;;;;;;3.13;1.20;;;;;;;;;;4986942;28;20466;-90
2021/08/09 11:35:28;;;;;;;1.13;0.77;;;;;;;;;;4975210;28;20504;-90
2021/08/09 11:38:00;;;;;;;1.13;1.03;;;25.20;90.20;;;;;;4971533;28;20477;-96
2021/08/09 11:40:44;;;;;;;1.77;1.20;;;24.20;91.60;;;;;;4975353;28;20458;-90
2021/08/09 11:43:13;;;;;;;1.80;1.10;;;24.50;91.30;;;;;;4971750;28;20465;-94
2021/08/09 11:45:40;;;;;;;1.13;0.80;;;;;;;;;;4975664;28;20446;-91
2021/08/09 11:48:08;;;;;;;1.63;1.00;;;24.70;91.70;;;;;;4975880;28;20514;-94
2021/08/09 11:50:37;;;;;;;1.10;0.90;;;24.30;90.60;;;;;;4975412;28;20846;-92
2021/08/09 11:53:05;;;;;;;3.50;1.23;;;24.00;92.60;;;;;;4973844;28;20464;-91
2021/08/09 11:55:33;;;;;;;1.20;1.10;;;;;;;;;;4971974;28;20500;-94
2021/08/09 11:58:01;;;;;;;1.30;0.93;;;23.50;90.90;;;;;;4971934;28;20458;-90
2021/08/09 12:00:42;;;;;;;1.70;1.30;;;24.10;92.20;;;;;;4974885;28;20453;-92
2021/08/09 12:03:16;;;;;;;1.80;1.10;;;24.30;90.70;;;;;;4972207;28;20457;-92
2021/08/09 12:05:44;;;;;;;1.90;1.20;;;;;;;;;;4974963;28;20548;-93
2021/08/09 12:08:11;;;;;;;1.50;0.70;;;;;;;;;;4970847;28;20453;-92
2021/08/09 12:10:40;;;;;;;3.60;1.10;;;25.60;88.20;;;;;;4971584;28;20450;-93
2021/08/09 12:13:27;;;;;;;1.57;1.17;;;25.60;85.90;;;;;;4974922;28;20450;-92
2021/08/09 12:16:08;;;;;;;2.50;1.17;;;24.50;85.50;;;;;;4970123;28;20592;-89
2021/08/09 12:18:35;;;;;;;3.83;1.20;;;;;;;;;;4971785;28;20468;-95
2021/08/09 12:21:09;;;;;;;2.83;1.63;;;25.60;87.90;;;;;;4975042;28;20453;-93
2021/08/09 12:23:50;;;;;;;2.27;1.37;;;24.90;87.10;;;;;;4973197;28;20453;-92
2021/08/09 12:26:24;;;;;;;1.60;1.10;;;;;;;;;;4972269;28;20548;-93
2021/08/09 12:28:54;;;;;;;2.43;1.17;;;24.90;83.70;;;;;;4975806;28;20764;-93
2021/08/09 12:31:45;;;;;;;2.23;1.30;;;24.00;85.50;;;;;;4975296;28;20478;-94
2021/08/09 12:34:14;;;;;;;1.10;1.00;;;23.50;85.90;;;;;;4971321;28;20878;-92
2021/08/09 12:36:42;;;;;;;1.50;0.93;;;;;;;;;;4972500;28;20490;-90
2021/08/09 12:39:10;;;;;;;2.20;1.33;;;21.30;88.10;;;;;;4976593;28;20836;-90
2021/08/09 12:41:38;;;;;;;2.70;1.33;;;;;;;;;;4969084;28;20465;-93
2021/08/09 12:44:08;;;;;;;1.87;1.43;;;;;;;;;;4978253;28;20442;-90
2021/08/09 12:46:36;;;;;;;1.87;1.13;;;;;;;;;;4978080;28;20474;-91
2021/08/09 12:49:03;;;;;;;2.10;1.07;;;;;;;;;;4977791;28;20450;-89
2021/08/09 12:51:30;;;;;;;3.20;1.37;;;;;;;;;;4977503;28;20457;-90
2021/08/09 12:53:57;;;;;;;1.30;1.20;;;;;;;;;;4976710;28;20461;-90
2021/08/09 12:56:24;;;;;;;1.63;1.03;;;;;;;;;;4977908;28;20497;-90
2021/08/09 12:58:52;;;;;;;1.20;1.10;;;;;;;;;;4978177;28;20501;-91
2021/08/09 13:01:20;;;;;;;2.90;1.40;;;24.30;88.20;;;;;;4989792;28;20450;-88
2021/08/09 13:03:47;;;;;;;3.53;1.20;;;;;;;;;;4986164;28;20450;-93
2021/08/09 13:06:20;;;;;;;1.80;0.87;;;;;;;;;;4978708;28;20450;-94
2021/08/09 13:08:48;;;;;;;1.67;1.20;;;;;;;;;;4981937;28;20556;-93
2021/08/09 13:11:15;;;;;;;1.37;1.00;;;;;;;;;;4978394;28;20856;-91
2021/08/09 13:13:42;;;;;;;2.20;1.00;;;;;;;;;;4976720;28;20477;-91
2021/08/09 13:16:10;;;;;;;1.83;1.13;;;24.30;86.30;;;;;;4977943;28;21069;-91
2021/08/09 13:18:38;;;;;;;1.30;1.03;;;24.30;86.90;;;;;;4982848;28;20457;-92
2021/08/09 13:21:06;;;;;;;3.90;1.30;;;;;;;;;;4990667;28;20519;-94
2021/08/09 13:23:34;;;;;;;1.43;1.30;;;;;;;;;;4970817;28;20461;-94
2021/08/09 13:26:02;;;;;;;1.60;1.30;;;;;;;;;;4977436;28;20458;-92
2021/08/09 13:28:31;;;;;;;1.90;1.33;;;23.70;88.80;;;;;;4974795;28;20501;-93
2021/08/09 13:30:58;;;;;;;1.07;0.97;;;;;;;;;;4977680;28;20455;-94
2021/08/09 13:33:26;;;;;;;1.40;1.30;;;;;;;;;;4980550;28;20461;-92
2021/08/09 13:35:54;;;;;;;1.73;1.13;;;22.90;90.10;;;;;;4974872;28;20502;-93
2021/08/09 13:38:21;;;;;;;2.20;1.43;;;;;;;;;;4976992;28;20456;-90
2021/08/09 13:40:48;;;;;;;3.10;1.40;;;;;;;;;;4977652;28;20960;-94
2021/08/09 13:43:15;;;;;;;1.40;1.10;;;;;;;;;;4980588;28;20934;-95
2021/08/09 13:45:42;;;;;;;2.10;1.20;;;;;;;;;;4984505;28;20442;-92
2021/08/09 13:48:09;;;;;;;1.80;1.37;;;;;;;;;;4985548;28;20472;-93
2021/08/09 13:50:36;;;;;;;2.97;1.43;;;;;;;;;;4985693;28;20949;-94
2021/08/09 13:53:05;;;;;;;1.17;1.07;;;24.70;86.40;;;;;;4979956;28;20446;-96
2021/08/09 13:55:34;;;;;;;1.67;1.40;;;;;;;;;;4973970;28;20482;-94
2021/08/09 13:58:01;;;;;;;1.57;1.20;;;;;;;;;;4981693;28;20501;-93
2021/08/09 14:00:28;;;;;;;3.47;1.60;;;;;;;;;;4980732;28;20446;-93
2021/08/09 14:02:55;;;;;;;3.67;1.50;;;;;;;;;;4978961;28;20461;-93
2021/08/09 14:05:22;;;;;;;1.50;1.17;;;;;;;;;;4981337;28;20887;-93
2021/08/09 14:07:49;;;;;;;2.17;1.13;;;;;;;;;;4974976;28;20466;-92
2021/08/09 14:10:18;;;;;;;2.00;1.80;;;23.70;89.50;;;;;;4980128;28;20457;-90
2021/08/09 14:12:45;;;;;;;1.80;1.47;;;;;;;;;;4940345;29;20460;-92